Time;durP1;ratioP1;P1;durP2;ratioP2;P2;SDS_P1;SDS_P2;PMS_P1;PMS_P2;Temp;Humidity;BMP_temperature;BMP_pressure;BME280_temperature;BME280_humidity;BME280_pressure;Samples;Min_cycle;Max_cycle;Signal;HPM_P1;HPM_P2
2022/08/10 00:01:18;;;;;;;;;;;;;;;25.45;33.68;100882.41;20456200;28;97874;-78
2022/08/10 00:11:18;;;;;;;;;;;;;;;25.32;33.97;100883.47;20455933;28;98143;-77
2022/08/10 00:21:18;;;;;;;;;;;;;;;25.24;34.37;100881.50;20454439;28;97766;-78
2022/08/10 00:31:19;;;;;;;;;;;;;;;25.24;34.24;100878.84;20467897;28;99436;-77
2022/08/10 00:41:19;;;;;;;;;;;;;;;25.21;34.52;100868.50;20463133;28;100874;-78
2022/08/10 00:51:20;;;;;;;;;;;;;;;25.18;34.71;100878.53;20464559;28;101378;-76
2022/08/10 01:01:20;;;;;;;;;;;;;;;25.11;34.91;100878.22;20472926;28;97932;-77
2022/08/10 01:11:37;;;;;;;;;;;;;;;24.98;35.03;100875.78;20467821;28;97333;-74
2022/08/10 01:21:47;;;;;;;;;;;;;;;24.84;35.51;100879.63;20463609;28;98113;-76
2022/08/10 01:31:50;;;;;;;;;;;;;;;24.71;35.70;100879.81;20467453;28;98681;-76
2022/08/10 01:41:54;;;;;;;;;;;;;;;24.60;36.13;100888.66;20454280;28;101448;-75
2022/08/10 01:51:58;;;;;;;;;;;;;;;24.47;36.57;100898.59;20460477;27;97369;-76
2022/08/10 02:02:04;;;;;;;;;;;;;;;24.43;36.63;100895.34;20465650;28;97674;-75
2022/08/10 02:12:12;;;;;;;;;;;;;;;24.33;36.81;100880.38;20467720;28;97705;-75
2022/08/10 02:22:13;;;;;;;;;;;;;;;24.21;37.29;100898.13;20462635;28;98631;-76
2022/08/10 02:32:14;;;;;;;;;;;;;;;24.15;37.07;100902.09;20454567;27;98720;-77
2022/08/10 02:42:27;;;;;;;;;;;;;;;23.98;37.78;100896.38;20453055;28;98661;-77
2022/08/10 02:52:36;;;;;;;;;;;;;;;23.90;38.03;100900.56;20463394;28;98194;-76
2022/08/10 03:02:40;;;;;;;;;;;;;;;23.88;38.34;100910.47;20460303;28;98579;-75
2022/08/10 03:12:42;;;;;;;;;;;;;;;23.85;38.56;100916.81;20469838;28;98971;-76
2022/08/10 03:22:43;;;;;;;;;;;;;;;23.84;38.80;100925.72;20450985;28;100806;-76
2022/08/10 03:32:44;;;;;;;;;;;;;;;23.81;38.87;100941.84;20454298;28;98058;-76
2022/08/10 03:42:46;;;;;;;;;;;;;;;23.71;39.30;100943.53;20458293;28;98020;-76
2022/08/10 03:52:47;;;;;;;;;;;;;;;23.66;39.40;100942.09;20460395;28;98662;-76
2022/08/10 04:02:47;;;;;;;;;;;;;;;23.57;39.80;100950.75;20466586;28;98582;-76
2022/08/10 04:12:47;;;;;;;;;;;;;;;23.57;39.92;100952.53;20478014;28;98352;-78
2022/08/10 04:22:49;;;;;;;;;;;;;;;23.57;40.04;100956.06;20468874;28;99278;-77
2022/08/10 04:32:52;;;;;;;;;;;;;;;23.55;40.04;100955.31;20471329;28;98558;-76
2022/08/10 04:42:52;;;;;;;;;;;;;;;23.57;39.98;100949.91;20481489;28;99452;-77
2022/08/10 04:52:53;;;;;;;;;;;;;;;23.59;39.68;100954.09;20472663;28;101220;-77
2022/08/10 05:02:53;;;;;;;;;;;;;;;23.62;39.52;100961.81;20477410;28;97641;-77
2022/08/10 05:12:53;;;;;;;;;;;;;;;23.65;39.50;100960.72;20475032;28;97784;-77
2022/08/10 05:22:53;;;;;;;;;;;;;;;23.70;39.46;100963.00;20474315;28;99145;-78
2022/08/10 05:32:54;;;;;;;;;;;;;;;23.75;38.86;100964.31;20481698;28;100969;-80
2022/08/10 05:42:54;;;;;;;;;;;;;;;23.82;39.23;100956.75;20481127;28;101509;-81
2022/08/10 05:52:54;;;;;;;;;;;;;;;23.87;38.79;100965.13;20487799;28;98596;-81
2022/08/10 06:02:59;;;;;;;;;;;;;;;23.90;38.86;100956.97;20486831;28;97734;-79
2022/08/10 06:23:22;;;;;;;;;;;;;;;24.21;38.36;100962.44;20508912;28;100833;-82
2022/08/10 06:33:30;;;;;;;;;;;;;;;24.34;37.92;100949.06;20510165;28;97813;-83
2022/08/10 06:43:32;;;;;;;;;;;;;;;24.48;37.44;100952.38;20494171;28;97892;-84
2022/08/10 06:53:35;;;;;;;;;;;;;;;24.61;37.29;100947.75;20475498;28;97916;-82
2022/08/10 07:03:41;;;;;;;;;;;;;;;24.75;35.83;100939.50;20481334;28;98509;-81
2022/08/10 07:13:42;;;;;;;;;;;;;;;24.86;35.63;100946.53;20488335;28;100553;-75
2022/08/10 07:23:44;;;;;;;;;;;;;;;24.98;34.49;100938.53;20481569;28;97854;-76
2022/08/10 07:33:45;;;;;;;;;;;;;;;25.09;34.21;100935.81;20476039;28;97894;-80
2022/08/10 07:43:49;;;;;;;;;;;;;;;25.19;33.69;100930.56;20477052;28;103782;-75
2022/08/10 07:53:51;;;;;;;;;;;;;;;25.26;34.37;100929.06;20481410;28;98280;-81
2022/08/10 08:03:52;;;;;;;;;;;;;;;25.34;34.62;100929.25;20483937;28;97333;-80
2022/08/10 08:13:53;;;;;;;;;;;;;;;25.42;34.60;100921.47;20460474;28;100388;-78
2022/08/10 08:23:54;;;;;;;;;;;;;;;25.51;34.09;100926.94;20456302;28;99759;-75
2022/08/10 08:33:54;;;;;;;;;;;;;;;25.57;33.64;100916.66;20434480;28;100420;-75
2022/08/10 08:44:03;;;;;;;;;;;;;;;25.66;33.24;100908.84;20430415;28;99191;-76
2022/08/10 08:54:20;;;;;;;;;;;;;;;25.72;32.88;100909.16;20468808;28;99113;-74
2022/08/10 09:04:43;;;;;;;;;;;;;;;25.80;33.27;100908.44;20464949;28;100173;-79
2022/08/10 09:15:10;;;;;;;;;;;;;;;25.86;32.93;100896.47;20489776;28;100737;-76
2022/08/10 09:25:18;;;;;;;;;;;;;;;25.94;31.84;100893.09;20567418;28;97088;-89
2022/08/10 09:35:21;;;;;;;;;;;;;;;26.00;31.34;100896.06;20559080;28;97328;-87
2022/08/10 09:45:38;;;;;;;;;;;;;;;26.05;31.09;100888.53;20533736;28;97866;-85
2022/08/10 09:55:42;;;;;;;;;;;;;;;26.13;31.13;100873.75;20476511;27;98486;-77
2022/08/10 10:05:45;;;;;;;;;;;;;;;26.18;31.59;100864.41;20468210;28;101172;-71
2022/08/10 10:15:52;;;;;;;;;;;;;;;26.19;32.12;100857.25;20451848;28;99349;-77
2022/08/10 10:26:05;;;;;;;;;;;;;;;26.29;31.75;100847.47;20485170;28;98793;-78
2022/08/10 10:36:06;;;;;;;;;;;;;;;26.41;32.33;100839.34;20495116;28;97759;-75
2022/08/10 10:46:16;;;;;;;;;;;;;;;26.58;33.09;100827.16;20489547;27;98539;-76
2022/08/10 10:56:46;;;;;;;;;;;;;;;26.72;31.16;100824.03;20489304;28;100387;-74
2022/08/10 11:06:46;;;;;;;;;;;;;;;26.82;32.13;100832.84;20466640;28;98313;-75
2022/08/10 11:16:52;;;;;;;;;;;;;;;26.86;29.71;100824.59;20472366;28;98715;-74
2022/08/10 11:27:03;;;;;;;;;;;;;;;26.97;29.87;100805.78;20473139;28;97882;-76
2022/08/10 11:37:06;;;;;;;;;;;;;;;27.02;29.89;100800.84;20479181;28;98952;-75
2022/08/10 11:47:26;;;;;;;;;;;;;;;27.04;29.72;100803.34;20470762;28;99669;-75
2022/08/10 11:57:29;;;;;;;;;;;;;;;27.09;29.55;100799.28;20478089;28;99085;-78
2022/08/10 12:07:31;;;;;;;;;;;;;;;27.11;28.39;100797.31;20477652;28;102266;-79
2022/08/10 12:17:34;;;;;;;;;;;;;;;27.11;28.10;100794.66;20464749;28;97527;-75
2022/08/10 12:27:40;;;;;;;;;;;;;;;27.13;28.68;100779.38;20512168;28;98251;-76
2022/08/10 12:37:47;;;;;;;;;;;;;;;27.17;28.26;100775.47;20533419;28;99047;-77
2022/08/10 12:48:02;;;;;;;;;;;;;;;27.21;27.99;100769.84;20513802;28;98452;-78
2022/08/10 12:58:05;;;;;;;;;;;;;;;27.21;28.17;100753.88;20518133;27;101704;-76
2022/08/10 13:18:27;;;;;;;;;;;;;;;27.26;28.42;100746.31;20497865;28;97888;-74
2022/08/10 13:28:43;;;;;;;;;;;;;;;27.32;27.83;100738.56;20490654;28;97666;-76
2022/08/10 13:38:47;;;;;;;;;;;;;;;27.38;26.88;100741.59;20466874;28;101155;-75
2022/08/10 13:48:48;;;;;;;;;;;;;;;27.47;27.23;100727.41;20468206;28;97460;-77
2022/08/10 13:58:52;;;;;;;;;;;;;;;27.55;27.00;100716.00;20477773;28;98964;-74
2022/08/10 14:08:56;;;;;;;;;;;;;;;27.61;27.07;100710.94;20490394;28;98548;-73
2022/08/10 14:19:00;;;;;;;;;;;;;;;27.64;26.61;100705.28;20489680;28;98931;-75
2022/08/10 14:29:08;;;;;;;;;;;;;;;27.58;26.63;100697.91;20486438;28;98281;-77
2022/08/10 14:39:12;;;;;;;;;;;;;;;27.64;27.23;100686.66;20488898;28;98459;-81
2022/08/10 14:49:13;;;;;;;;;;;;;;;27.73;27.21;100695.53;20494641;28;98200;-81
2022/08/10 14:59:15;;;;;;;;;;;;;;;27.71;26.78;100673.59;20488519;28;98484;-80
2022/08/10 15:09:17;;;;;;;;;;;;;;;27.75;26.79;100676.78;20480453;28;98723;-77
2022/08/10 15:19:20;;;;;;;;;;;;;;;27.73;26.95;100676.91;20497395;28;97806;-78
2022/08/10 15:29:24;;;;;;;;;;;;;;;27.81;27.17;100668.16;20526052;28;98649;-85
2022/08/10 15:39:27;;;;;;;;;;;;;;;27.96;27.11;100669.28;20504922;28;99167;-81
2022/08/10 15:49:36;;;;;;;;;;;;;;;28.30;26.12;100678.28;20509734;28;98845;-82
2022/08/10 15:59:42;;;;;;;;;;;;;;;28.99;25.62;100666.69;20499362;28;97388;-81
2022/08/10 16:09:50;;;;;;;;;;;;;;;29.78;24.80;100660.91;20518609;28;99092;-80
2022/08/10 16:19:53;;;;;;;;;;;;;;;30.22;23.98;100657.78;20499927;28;98791;-81
2022/08/10 16:29:57;;;;;;;;;;;;;;;30.01;24.14;100663.72;20479799;28;101360;-79
2022/08/10 16:39:59;;;;;;;;;;;;;;;29.44;24.87;100665.44;20497142;28;97876;-79
2022/08/10 16:50:03;;;;;;;;;;;;;;;28.94;25.44;100666.38;20495957;28;98440;-77
2022/08/10 17:00:08;;;;;;;;;;;;;;;28.54;25.56;100666.91;20478158;28;97826;-79
2022/08/10 17:10:10;;;;;;;;;;;;;;;28.28;25.88;100681.13;20501842;28;100658;-78
2022/08/10 17:20:12;;;;;;;;;;;;;;;28.07;26.58;100683.31;20498297;28;97601;-77
2022/08/10 17:30:14;;;;;;;;;;;;;;;27.91;26.88;100692.84;20495722;28;98300;-73
2022/08/10 17:40:15;;;;;;;;;;;;;;;27.78;27.32;100708.38;20519994;28;97331;-74
2022/08/10 17:50:24;;;;;;;;;;;;;;;27.64;27.72;100707.94;20498559;28;101258;-75
2022/08/10 18:00:24;;;;;;;;;;;;;;;27.54;27.66;100709.00;20507785;28;98636;-75
2022/08/10 18:10:28;;;;;;;;;;;;;;;27.46;28.05;100713.28;20555686;27;98764;-73
2022/08/10 18:20:33;;;;;;;;;;;;;;;27.39;28.54;100725.50;20520479;28;100682;-74
2022/08/10 18:30:40;;;;;;;;;;;;;;;27.29;28.37;100741.53;20508947;28;97770;-75
2022/08/10 18:40:42;;;;;;;;;;;;;;;27.22;28.25;100744.91;20522789;28;98534;-75
2022/08/10 18:50:46;;;;;;;;;;;;;;;27.14;29.05;100756.31;20508397;28;100623;-75
2022/08/10 19:01:05;;;;;;;;;;;;;;;27.10;29.05;100771.72;20490202;28;98621;-74
2022/08/10 19:11:25;;;;;;;;;;;;;;;27.03;29.16;100769.81;20480805;28;98698;-73
2022/08/10 19:21:36;;;;;;;;;;;;;;;26.98;29.40;100775.56;20496095;28;99749;-74
2022/08/10 19:32:03;;;;;;;;;;;;;;;26.94;29.49;100779.50;20487970;28;97837;-74
2022/08/10 19:42:17;;;;;;;;;;;;;;;26.86;29.53;100772.28;20470290;28;98645;-74
2022/08/10 19:52:24;;;;;;;;;;;;;;;26.80;29.52;100783.50;20461125;28;99009;-73
2022/08/10 20:02:45;;;;;;;;;;;;;;;26.54;30.05;100784.13;20468632;28;97759;-74
2022/08/10 20:13:04;;;;;;;;;;;;;;;26.52;29.90;100784.28;20498192;28;98665;-75
2022/08/10 20:23:08;;;;;;;;;;;;;;;26.37;29.87;100801.63;20467243;28;98268;-73
2022/08/10 20:33:11;;;;;;;;;;;;;;;26.21;30.30;100818.97;20487105;28;98834;-72
2022/08/10 20:43:31;;;;;;;;;;;;;;;26.16;30.52;100820.41;20498632;28;97806;-71
2022/08/10 20:53:33;;;;;;;;;;;;;;;26.10;30.59;100835.06;20505230;28;97977;-72
2022/08/10 21:03:52;;;;;;;;;;;;;;;26.03;30.50;100840.03;20496086;28;101498;-71
2022/08/10 21:14:04;;;;;;;;;;;;;;;25.95;30.77;100839.06;20502746;28;97636;-72
2022/08/10 21:24:09;;;;;;;;;;;;;;;25.85;30.37;100844.38;20497279;28;97898;-73
2022/08/10 23:07:40;;;;;;;;;;;;;;;24.99;33.26;100853.63;20491938;28;98319;-75
2022/08/10 23:28:07;;;;;;;;;;;;;;;24.99;33.31;100844.84;20456529;28;98896;-76
2022/08/10 23:38:09;;;;;;;;;;;;;;;24.79;33.63;100844.72;20490106;28;99066;-74
2022/08/10 23:48:10;;;;;;;;;;;;;;;24.68;33.81;100827.13;20451717;28;98725;-75
2022/08/10 23:58:11;;;;;;;;;;;;;;;24.58;34.38;100834.16;20480928;28;100107;-74
